createdAt,value
2018-06-06T00:00:24.598Z,0
2018-06-06T00:01:05.127Z,0
2018-06-06T00:01:45.621Z,0
2018-06-06T00:03:43.823Z,0
2018-06-06T00:04:24.342Z,0
2018-06-06T00:05:04.873Z,0
2018-06-06T00:05:45.375Z,0
2018-06-06T00:06:25.895Z,0
2018-06-06T00:07:06.376Z,0
2018-06-06T00:07:46.907Z,0
2018-06-06T00:08:27.404Z,0
2018-06-06T00:09:07.932Z,0
2018-06-06T00:09:48.438Z,0
2018-06-06T00:10:28.980Z,0
2018-06-06T00:11:09.493Z,0
2018-06-06T00:11:50.004Z,0
2018-06-06T00:12:30.536Z,0
2018-06-06T00:13:11.050Z,0
2018-06-06T00:13:51.590Z,0
2018-06-06T00:14:32.105Z,0
2018-06-06T00:15:12.632Z,0
2018-06-06T00:15:53.149Z,0
2018-06-06T00:16:33.672Z,0
2018-06-06T00:17:14.184Z,0
2018-06-06T00:17:54.705Z,0
2018-06-06T00:18:35.237Z,0
2018-06-06T00:19:15.757Z,0
2018-06-06T00:19:56.283Z,0
2018-06-06T00:20:36.814Z,0
2018-06-06T00:21:17.333Z,0
2018-06-06T00:21:57.856Z,0
2018-06-06T00:22:38.390Z,0
2018-06-06T00:23:18.906Z,0
2018-06-06T00:23:59.433Z,0
2018-06-06T00:24:39.952Z,0
2018-06-06T00:25:20.480Z,0
2018-06-06T00:26:01.006Z,0
2018-06-06T00:26:41.539Z,0
2018-06-06T00:27:22.060Z,0
2018-06-06T00:28:02.581Z,0
2018-06-06T00:28:43.102Z,0
2018-06-06T00:29:23.640Z,0
2018-06-06T00:30:04.173Z,0
2018-06-06T00:30:44.710Z,0
2018-06-06T00:31:25.239Z,0
2018-06-06T00:32:05.764Z,0
2018-06-06T00:32:46.280Z,0
2018-06-06T00:33:26.803Z,0
2018-06-06T00:34:07.321Z,0
2018-06-06T00:34:47.845Z,0
2018-06-06T00:35:28.374Z,0
2018-06-06T00:36:08.888Z,0
2018-06-06T00:36:49.422Z,0
2018-06-06T00:37:29.943Z,0
2018-06-06T00:38:10.452Z,0
2018-06-06T00:38:50.978Z,0
2018-06-06T00:39:31.489Z,0
2018-06-06T00:40:12.007Z,0
2018-06-06T00:40:52.544Z,0
2018-06-06T00:41:33.075Z,0
2018-06-06T00:42:13.581Z,0
2018-06-06T00:42:54.107Z,0
2018-06-06T00:43:34.618Z,0
2018-06-06T00:44:15.138Z,0
2018-06-06T00:44:55.662Z,0
2018-06-06T00:45:36.183Z,0
2018-06-06T00:46:16.698Z,0
2018-06-06T00:46:57.228Z,0
2018-06-06T00:47:37.745Z,0
2018-06-06T00:48:18.277Z,0
2018-06-06T00:48:58.799Z,0
2018-06-06T00:49:39.327Z,0
2018-06-06T00:50:19.857Z,0
2018-06-06T00:51:00.373Z,0
2018-06-06T00:51:40.915Z,0
2018-06-06T00:52:21.435Z,0
2018-06-06T00:53:01.958Z,0
2018-06-06T00:53:42.469Z,0
2018-06-06T00:54:23.006Z,0
2018-06-06T00:55:03.531Z,0
2018-06-06T00:55:44.044Z,0
2018-06-06T00:56:24.550Z,0
2018-06-06T00:57:05.068Z,0
2018-06-06T00:57:45.585Z,0
2018-06-06T00:58:26.106Z,0
2018-06-06T00:59:06.629Z,0
2018-06-06T00:59:47.148Z,0
2018-06-06T01:00:27.670Z,0
2018-06-06T01:01:08.192Z,0
2018-06-06T01:01:48.705Z,0
2018-06-06T01:02:29.230Z,0
2018-06-06T01:03:09.745Z,0
2018-06-06T01:03:50.270Z,0
2018-06-06T01:04:30.785Z,0
2018-06-06T01:05:11.309Z,0
2018-06-06T01:05:51.843Z,0
2018-06-06T01:06:32.348Z,0
2018-06-06T01:07:12.870Z,0
2018-06-06T01:07:53.405Z,0
2018-06-06T01:08:33.909Z,0
2018-06-06T01:09:14.424Z,0
2018-06-06T01:09:54.947Z,0
2018-06-06T01:10:35.482Z,0
2018-06-06T01:11:16.006Z,0
2018-06-06T01:11:56.528Z,0
2018-06-06T01:12:37.053Z,0
2018-06-06T01:13:17.572Z,0
2018-06-06T01:13:58.096Z,0
2018-06-06T01:14:38.605Z,0
2018-06-06T01:15:19.130Z,0
2018-06-06T01:15:59.661Z,0
2018-06-06T01:16:40.181Z,0
2018-06-06T01:17:20.698Z,0
2018-06-06T01:18:01.226Z,0
2018-06-06T01:18:41.735Z,0
2018-06-06T01:19:22.257Z,0
2018-06-06T01:20:02.784Z,0
2018-06-06T01:20:43.309Z,0
2018-06-06T01:21:23.838Z,0
2018-06-06T01:22:04.360Z,0
2018-06-06T01:22:44.882Z,0
2018-06-06T01:23:25.403Z,0
2018-06-06T01:24:05.929Z,0
2018-06-06T01:24:46.439Z,0
2018-06-06T01:25:26.961Z,0
2018-06-06T01:26:07.488Z,0
2018-06-06T01:26:48.007Z,0
2018-06-06T01:27:28.529Z,0
2018-06-06T01:28:09.056Z,0
2018-06-06T01:28:49.575Z,0
2018-06-06T01:29:30.100Z,0
2018-06-06T01:30:10.635Z,0
2018-06-06T01:30:51.164Z,0
2018-06-06T01:31:31.691Z,0
2018-06-06T01:32:12.216Z,0
2018-06-06T01:32:52.744Z,0
2018-06-06T01:33:33.284Z,0
2018-06-06T01:34:13.804Z,0
2018-06-06T01:34:54.322Z,0
2018-06-06T01:35:34.848Z,0
2018-06-06T01:36:15.380Z,0
2018-06-06T01:36:55.899Z,0
2018-06-06T01:37:36.423Z,0
2018-06-06T01:38:16.929Z,0
2018-06-06T01:38:57.445Z,0
2018-06-06T01:39:37.959Z,0
2018-06-06T01:40:18.498Z,0
2018-06-06T01:40:59.018Z,0
2018-06-06T01:41:39.511Z,0
2018-06-06T01:42:20.025Z,0
2018-06-06T01:43:00.536Z,0
2018-06-06T01:43:41.046Z,0
2018-06-06T01:44:21.563Z,0
2018-06-06T01:45:02.060Z,0
2018-06-06T01:45:42.574Z,0
2018-06-06T01:46:23.092Z,0
2018-06-06T01:48:36.370Z,0
2018-06-06T01:49:16.890Z,0
2018-06-06T01:49:57.414Z,0
2018-06-06T01:50:37.938Z,0
2018-06-06T01:51:18.465Z,0
2018-06-06T01:51:58.986Z,0
2018-06-06T01:52:39.521Z,0
2018-06-06T01:53:20.053Z,0
2018-06-06T01:54:00.556Z,0
2018-06-06T01:54:41.072Z,0
2018-06-06T01:55:21.585Z,0
2018-06-06T01:56:02.087Z,0
2018-06-06T01:56:42.614Z,0
2018-06-06T01:57:23.093Z,0
2018-06-06T01:58:03.589Z,0
2018-06-06T01:58:44.113Z,0
2018-06-06T01:59:24.621Z,0
2018-06-06T02:00:05.136Z,0
2018-06-06T02:00:45.632Z,0
2018-06-06T02:01:26.184Z,0
2018-06-06T02:02:06.644Z,0
2018-06-06T02:02:47.171Z,0
2018-06-06T02:03:27.645Z,0
2018-06-06T02:04:08.149Z,0
2018-06-06T02:04:48.664Z,0
2018-06-06T02:05:29.176Z,0
2018-06-06T02:06:09.685Z,0
2018-06-06T02:06:50.187Z,0
2018-06-06T02:07:30.710Z,0
2018-06-06T02:08:11.218Z,0
2018-06-06T02:08:51.747Z,0
2018-06-06T02:09:32.258Z,0
2018-06-06T02:10:12.805Z,0
2018-06-06T02:10:53.301Z,0
2018-06-06T02:11:33.788Z,0
2018-06-06T02:12:14.295Z,0
2018-06-06T02:12:54.862Z,0
2018-06-06T02:13:35.371Z,0
2018-06-06T02:14:15.888Z,0
2018-06-06T02:14:56.394Z,0
2018-06-06T02:15:36.883Z,0
2018-06-06T02:16:17.423Z,0
2018-06-06T02:16:57.933Z,0
2018-06-06T02:17:38.450Z,0
2018-06-06T02:18:18.961Z,0
2018-06-06T02:18:59.467Z,0
2018-06-06T02:19:39.974Z,0
2018-06-06T02:20:20.486Z,0
2018-06-06T02:21:01.010Z,0
2018-06-06T02:21:41.523Z,0
2018-06-06T02:22:22.034Z,0
2018-06-06T02:23:02.517Z,0
2018-06-06T02:23:43.034Z,0
2018-06-06T02:24:23.560Z,0
2018-06-06T02:25:04.060Z,0
2018-06-06T02:25:44.568Z,0
2018-06-06T02:26:25.088Z,0
2018-06-06T02:27:05.595Z,0
2018-06-06T02:27:46.112Z,0
2018-06-06T02:28:26.640Z,0
2018-06-06T02:29:07.133Z,0
2018-06-06T02:29:47.648Z,0
2018-06-06T02:30:28.163Z,0
2018-06-06T02:31:08.684Z,0
2018-06-06T02:31:49.215Z,0
2018-06-06T02:32:29.717Z,0
2018-06-06T02:33:10.220Z,0
2018-06-06T02:33:50.733Z,0
2018-06-06T02:34:31.249Z,0
2018-06-06T02:35:11.778Z,0
2018-06-06T02:35:52.306Z,0
2018-06-06T02:36:32.787Z,0
2018-06-06T02:37:13.291Z,0
2018-06-06T02:37:53.786Z,0
2018-06-06T02:38:34.302Z,0
2018-06-06T02:39:14.816Z,0
2018-06-06T02:39:55.330Z,0
2018-06-06T02:40:35.806Z,0
2018-06-06T02:41:16.314Z,4
2018-06-06T02:41:56.824Z,4
2018-06-06T02:42:37.326Z,0
2018-06-06T02:43:17.893Z,0
2018-06-06T02:43:58.403Z,0
2018-06-06T02:44:38.894Z,0
2018-06-06T02:45:19.382Z,4
2018-06-06T02:45:59.891Z,4
2018-06-06T02:46:40.411Z,0
2018-06-06T02:47:20.950Z,0
2018-06-06T02:48:01.449Z,4
2018-06-06T02:48:41.956Z,4
2018-06-06T02:49:22.442Z,0
2018-06-06T02:50:02.941Z,4
2018-06-06T02:50:43.446Z,4
2018-06-06T02:51:23.957Z,4
2018-06-06T02:52:04.469Z,4
2018-06-06T02:52:44.976Z,4
2018-06-06T02:53:25.480Z,8
2018-06-06T02:54:05.989Z,8
2018-06-06T02:54:46.510Z,4
2018-06-06T02:55:27.026Z,8
2018-06-06T02:56:07.531Z,8
2018-06-06T02:56:48.051Z,8
2018-06-06T02:57:28.553Z,8
2018-06-06T02:58:09.061Z,8
2018-06-06T02:58:49.564Z,12
2018-06-06T02:59:30.068Z,12
2018-06-06T03:00:10.597Z,12
2018-06-06T03:00:51.118Z,16
2018-06-06T03:01:31.633Z,20
2018-06-06T03:02:12.148Z,16
2018-06-06T03:02:52.656Z,20
2018-06-06T03:03:33.139Z,20
2018-06-06T03:04:13.636Z,24
2018-06-06T03:04:54.137Z,24
2018-06-06T03:05:34.640Z,24
2018-06-06T03:06:15.152Z,32
2018-06-06T03:06:55.656Z,32
2018-06-06T03:07:36.164Z,32
2018-06-06T03:08:16.672Z,36
2018-06-06T03:08:57.194Z,40
2018-06-06T03:09:37.714Z,44
2018-06-06T03:10:18.237Z,48
2018-06-06T03:10:58.714Z,48
2018-06-06T03:11:39.228Z,52
2018-06-06T03:12:19.756Z,56
2018-06-06T03:13:00.275Z,56
2018-06-06T03:13:40.786Z,64
2018-06-06T03:14:21.296Z,64
2018-06-06T03:15:01.809Z,72
2018-06-06T03:15:42.327Z,72
2018-06-06T03:16:22.820Z,80
2018-06-06T03:17:03.340Z,84
2018-06-06T03:17:43.845Z,88
2018-06-06T03:18:24.337Z,92
2018-06-06T03:19:04.838Z,96
2018-06-06T03:19:45.356Z,104
2018-06-06T03:20:25.905Z,112
2018-06-06T03:21:06.366Z,112
2018-06-06T03:21:46.892Z,124
2018-06-06T03:22:27.407Z,128
2018-06-06T03:23:07.927Z,132
2018-06-06T03:23:48.419Z,140
2018-06-06T03:24:28.929Z,148
2018-06-06T03:25:09.422Z,156
2018-06-06T03:25:49.932Z,160
2018-06-06T03:26:30.446Z,172
2018-06-06T03:27:10.947Z,180
2018-06-06T03:27:51.462Z,188
2018-06-06T03:28:31.974Z,196
2018-06-06T03:29:12.491Z,208
2018-06-06T03:29:53.002Z,212
2018-06-06T03:30:33.499Z,220
2018-06-06T03:31:14.013Z,232
2018-06-06T03:31:54.510Z,240
2018-06-06T03:32:35.005Z,248
2018-06-06T03:33:15.499Z,260
2018-06-06T03:33:56.000Z,268
2018-06-06T03:34:36.530Z,280
2018-06-06T03:35:17.063Z,288
2018-06-06T03:35:57.575Z,300
2018-06-06T03:36:38.090Z,312
2018-06-06T03:37:18.595Z,328
2018-06-06T03:37:59.104Z,340
2018-06-06T03:38:39.625Z,352
2018-06-06T03:39:20.122Z,368
2018-06-06T03:40:00.637Z,384
2018-06-06T03:40:41.141Z,396
2018-06-06T03:41:21.702Z,412
2018-06-06T03:42:02.170Z,432
2018-06-06T03:42:42.688Z,448
2018-06-06T03:43:23.228Z,468
2018-06-06T03:44:03.711Z,492
2018-06-06T03:44:44.219Z,508
2018-06-06T03:45:24.747Z,524
2018-06-06T03:46:05.231Z,548
2018-06-06T03:46:45.739Z,568
2018-06-06T03:47:26.267Z,592
2018-06-06T03:48:06.794Z,612
2018-06-06T03:48:47.280Z,632
2018-06-06T03:49:27.777Z,656
2018-06-06T03:50:08.276Z,680
2018-06-06T03:50:48.771Z,708
2018-06-06T03:51:29.363Z,740
2018-06-06T03:52:09.854Z,764
2018-06-06T03:52:50.346Z,796
2018-06-06T03:53:30.838Z,824
2018-06-06T03:54:11.346Z,856
2018-06-06T03:54:51.855Z,884
2018-06-06T03:55:32.388Z,920
2018-06-06T03:56:12.884Z,960
2018-06-06T03:56:53.385Z,1000
2018-06-06T03:57:33.905Z,1048
2018-06-06T03:58:14.398Z,1092
2018-06-06T03:58:54.933Z,1136
2018-06-06T03:59:35.458Z,1192
2018-06-06T04:00:15.960Z,1244
2018-06-06T04:00:56.468Z,1304
2018-06-06T04:01:36.980Z,1364
2018-06-06T04:02:17.562Z,1424
2018-06-06T04:02:58.009Z,1484
2018-06-06T04:03:38.580Z,1544
2018-06-06T04:04:19.103Z,1604
2018-06-06T04:04:59.619Z,1660
2018-06-06T04:05:40.112Z,1716
2018-06-06T04:06:20.626Z,1780
2018-06-06T04:07:01.135Z,1856
2018-06-06T04:07:41.652Z,1936
2018-06-06T04:08:22.177Z,1988
2018-06-06T04:09:02.692Z,2036
2018-06-06T04:09:43.200Z,2092
2018-06-06T04:10:23.792Z,2140
2018-06-06T04:11:04.325Z,2192
2018-06-06T04:11:44.859Z,2232
2018-06-06T04:12:25.360Z,2284
2018-06-06T04:13:05.865Z,2332
2018-06-06T04:13:46.385Z,2376
2018-06-06T04:14:26.880Z,2428
2018-06-06T04:15:07.393Z,2480
2018-06-06T04:15:47.895Z,2528
2018-06-06T04:16:28.378Z,2572
2018-06-06T04:17:08.860Z,2624
2018-06-06T04:17:49.363Z,2672
2018-06-06T04:18:29.878Z,2716
2018-06-06T04:19:10.384Z,2784
2018-06-06T04:19:50.898Z,2840
2018-06-06T04:20:31.416Z,2904
2018-06-06T04:21:11.896Z,2952
2018-06-06T04:21:52.438Z,3028
2018-06-06T04:22:32.950Z,3080
2018-06-06T04:23:13.475Z,3124
2018-06-06T04:23:53.962Z,3204
2018-06-06T04:24:34.459Z,3264
2018-06-06T04:25:15.003Z,3320
2018-06-06T04:25:55.513Z,3384
2018-06-06T04:26:36.015Z,3432
2018-06-06T04:27:16.506Z,3476
2018-06-06T04:27:57.007Z,3536
2018-06-06T04:28:37.506Z,3592
2018-06-06T04:29:18.004Z,3628
2018-06-06T04:29:58.542Z,3700
2018-06-06T04:30:39.073Z,3748
2018-06-06T04:31:19.572Z,3772
2018-06-06T04:32:00.104Z,3828
2018-06-06T04:32:40.592Z,3932
2018-06-06T04:33:21.125Z,4052
2018-06-06T04:34:01.588Z,4420
2018-06-06T04:34:42.111Z,4588
2018-06-06T04:35:22.640Z,4316
2018-06-06T04:36:03.137Z,4420
2018-06-06T04:36:43.675Z,4184
2018-06-06T04:37:24.161Z,4332
2018-06-06T04:38:04.671Z,4540
2018-06-06T04:38:45.150Z,5336
2018-06-06T04:39:25.654Z,5688
2018-06-06T04:40:06.167Z,5016
2018-06-06T04:40:46.663Z,4836
2018-06-06T04:41:27.176Z,4460
2018-06-06T04:42:07.690Z,4444
2018-06-06T04:42:48.211Z,4428
2018-06-06T04:43:28.698Z,4624
2018-06-06T04:44:09.212Z,5060
2018-06-06T04:44:49.719Z,5088
2018-06-06T04:45:30.248Z,5196
2018-06-06T04:46:10.786Z,4676
2018-06-06T04:46:51.271Z,5044
2018-06-06T04:47:31.792Z,4836
2018-06-06T04:48:12.288Z,4908
2018-06-06T04:48:52.792Z,5056
2018-06-06T04:49:33.303Z,5556
2018-06-06T04:50:13.846Z,5936
2018-06-06T04:50:54.362Z,5840
2018-06-06T04:51:34.876Z,6436
2018-06-06T04:52:15.379Z,5560
2018-06-06T04:52:55.895Z,5536
2018-06-06T04:53:36.411Z,5916
2018-06-06T04:54:16.931Z,5496
2018-06-06T04:54:57.423Z,5256
2018-06-06T04:55:37.940Z,5392
2018-06-06T04:56:18.480Z,5344
2018-06-06T04:56:58.980Z,5392
2018-06-06T04:57:39.487Z,5604
2018-06-06T04:58:19.992Z,5648
2018-06-06T04:59:00.494Z,5696
2018-06-06T04:59:41.008Z,5708
2018-06-06T05:00:21.471Z,5668
2018-06-06T05:01:02.027Z,5812
2018-06-06T05:01:42.490Z,5828
2018-06-06T05:02:23.000Z,5904
2018-06-06T05:03:03.519Z,5984
2018-06-06T05:03:44.023Z,6120
2018-06-06T05:04:24.531Z,6168
2018-06-06T05:05:05.104Z,6256
2018-06-06T05:05:45.586Z,6404
2018-06-06T05:06:26.081Z,6476
2018-06-06T05:07:06.593Z,6732
2018-06-06T05:07:47.137Z,6880
2018-06-06T05:08:27.645Z,7244
2018-06-06T05:09:08.170Z,7316
2018-06-06T05:09:48.702Z,7300
2018-06-06T05:10:29.222Z,7364
2018-06-06T05:11:09.720Z,7584
2018-06-06T05:11:50.223Z,7620
2018-06-06T05:12:30.745Z,8004
2018-06-06T05:13:11.235Z,8092
2018-06-06T05:13:51.798Z,8160
2018-06-06T05:14:32.329Z,8212
2018-06-06T05:15:12.848Z,8496
2018-06-06T05:17:41.419Z,8628
2018-06-06T05:18:21.925Z,8532
2018-06-06T05:19:02.430Z,9032
2018-06-06T05:19:42.928Z,8324
2018-06-06T05:20:23.409Z,7856
2018-06-06T05:21:03.917Z,7408
2018-06-06T05:21:44.424Z,6984
2018-06-06T05:22:24.954Z,6660
2018-06-06T05:23:06.300Z,6428
2018-06-06T05:23:46.009Z,6156
2018-06-06T05:24:26.507Z,5816
2018-06-06T05:25:07.019Z,5444
2018-06-06T05:25:47.554Z,5280
2018-06-06T05:26:28.024Z,5204
2018-06-06T05:27:08.528Z,5084
2018-06-06T05:27:49.027Z,5028
2018-06-06T05:28:29.560Z,4964
2018-06-06T05:29:10.045Z,4892
2018-06-06T05:29:50.571Z,4872
2018-06-06T05:30:31.078Z,4868
2018-06-06T05:31:11.583Z,4896
2018-06-06T05:31:52.883Z,4932
2018-06-06T05:32:33.425Z,4948
2018-06-06T05:33:13.917Z,4912
2018-06-06T05:33:54.439Z,4824
2018-06-06T05:34:34.942Z,4760
2018-06-06T05:35:15.715Z,4708
2018-06-06T05:35:55.984Z,4676
2018-06-06T05:36:36.524Z,4668
2018-06-06T05:37:17.036Z,4688
2018-06-06T05:37:57.564Z,4776
2018-06-06T05:38:38.071Z,4912
2018-06-06T05:39:18.595Z,5072
2018-06-06T05:39:59.108Z,5188
2018-06-06T05:40:39.625Z,5328
2018-06-06T05:41:21.626Z,5432
2018-06-06T05:42:02.133Z,5552
2018-06-06T05:42:42.668Z,5676
2018-06-06T05:43:23.166Z,5920
2018-06-06T05:44:03.699Z,6164
2018-06-06T05:44:44.202Z,6160
2018-06-06T05:45:24.734Z,6380
2018-06-06T05:46:05.257Z,6756
2018-06-06T05:46:45.773Z,7076
2018-06-06T05:47:26.294Z,7232
2018-06-06T05:48:06.849Z,7252
2018-06-06T05:48:47.317Z,7188
2018-06-06T05:49:27.826Z,7000
2018-06-06T05:50:08.328Z,6944
2018-06-06T05:50:48.818Z,7148
2018-06-06T05:51:29.422Z,7208
2018-06-06T05:52:09.927Z,7376
2018-06-06T05:52:50.505Z,7436
2018-06-06T05:53:31.363Z,8368
2018-06-06T05:54:11.866Z,8444
2018-06-06T05:54:52.370Z,7236
2018-06-06T05:55:32.882Z,9312
2018-06-06T05:56:13.376Z,10208
2018-06-06T05:56:53.918Z,11368
2018-06-06T05:57:34.403Z,11180
2018-06-06T05:58:15.027Z,10968
2018-06-06T05:58:55.625Z,10932
2018-06-06T05:59:36.482Z,10784
2018-06-06T06:00:17.068Z,10676
2018-06-06T06:00:57.544Z,10576
2018-06-06T06:01:38.079Z,10564
2018-06-06T06:02:18.617Z,10792
2018-06-06T06:02:59.093Z,10936
2018-06-06T06:03:39.585Z,10968
2018-06-06T06:04:20.103Z,10856
2018-06-06T06:05:00.676Z,10852
2018-06-06T06:05:41.168Z,10936
2018-06-06T06:06:21.691Z,10832
2018-06-06T06:07:02.247Z,10880
2018-06-06T06:07:42.684Z,10944
2018-06-06T06:08:23.168Z,10896
2018-06-06T06:09:03.660Z,10892
2018-06-06T06:09:44.163Z,10984
2018-06-06T06:10:24.679Z,11064
2018-06-06T06:11:05.196Z,11056
2018-06-06T06:11:45.730Z,11020
2018-06-06T06:12:26.201Z,10956
2018-06-06T06:13:06.696Z,10940
2018-06-06T06:13:47.208Z,10888
2018-06-06T06:14:27.769Z,10864
2018-06-06T06:15:08.279Z,10856
2018-06-06T06:15:48.792Z,10824
2018-06-06T06:16:29.318Z,10836
2018-06-06T06:17:09.835Z,10824
2018-06-06T06:17:50.326Z,10816
2018-06-06T06:18:30.870Z,10800
2018-06-06T06:19:11.329Z,10796
2018-06-06T06:19:51.830Z,10756
2018-06-06T06:20:32.345Z,10696
2018-06-06T06:21:12.869Z,10628
2018-06-06T06:21:53.361Z,10588
2018-06-06T06:22:33.891Z,10544
2018-06-06T06:23:14.355Z,10520
2018-06-06T06:23:54.876Z,10540
2018-06-06T06:24:35.374Z,10536
2018-06-06T06:25:15.866Z,10508
2018-06-06T06:25:56.363Z,10496
2018-06-06T06:26:36.826Z,10440
2018-06-06T06:27:17.342Z,10372
2018-06-06T06:27:57.868Z,10312
2018-06-06T06:28:38.400Z,10276
2018-06-06T06:29:18.847Z,10260
2018-06-06T06:29:59.431Z,10252
2018-06-06T06:30:39.996Z,10220
2018-06-06T06:31:20.533Z,10156
2018-06-06T06:32:01.011Z,10140
2018-06-06T06:32:41.550Z,10156
2018-06-06T06:35:15.103Z,10144
2018-06-06T06:35:55.652Z,10132
2018-06-06T06:36:36.171Z,10132
2018-06-06T06:37:18.333Z,10076
2018-06-06T06:37:58.835Z,10052
2018-06-06T06:38:39.353Z,9968
2018-06-06T06:39:19.841Z,9892
2018-06-06T06:40:00.342Z,9768
2018-06-06T06:40:40.854Z,9768
2018-06-06T06:41:21.476Z,9792
2018-06-06T06:42:01.964Z,9788
2018-06-06T06:42:42.518Z,9784
2018-06-06T06:43:23.053Z,9788
2018-06-06T06:44:03.571Z,9772
2018-06-06T06:44:44.100Z,9752
2018-06-06T06:45:24.636Z,9684
2018-06-06T06:47:53.192Z,9688
2018-06-06T06:48:33.732Z,9728
2018-06-06T06:49:14.209Z,9732
2018-06-06T06:49:54.729Z,9716
2018-06-06T06:50:35.238Z,9684
2018-06-06T06:51:15.740Z,9672
2018-06-06T06:51:56.227Z,9660
2018-06-06T06:52:36.773Z,9652
2018-06-06T06:53:17.323Z,9628
2018-06-06T06:53:57.783Z,9600
2018-06-06T06:54:38.338Z,9636
2018-06-06T06:55:18.761Z,9668
2018-06-06T06:55:59.281Z,9664
2018-06-06T06:56:39.767Z,9696
2018-06-06T06:57:20.265Z,9692
2018-06-06T06:58:00.778Z,9644
2018-06-06T06:58:41.277Z,9616
2018-06-06T06:59:21.756Z,9624
2018-06-06T07:00:02.263Z,9588
2018-06-06T07:00:43.021Z,9556
2018-06-06T07:01:23.439Z,9532
2018-06-06T07:02:03.886Z,9496
2018-06-06T07:02:44.428Z,9492
2018-06-06T07:03:24.921Z,9468
2018-06-06T07:04:05.406Z,9192
2018-06-06T07:04:45.863Z,9460
2018-06-06T07:05:26.339Z,9452
2018-06-06T07:06:06.846Z,9448
2018-06-06T07:06:47.477Z,9424
2018-06-06T07:07:27.892Z,9416
2018-06-06T07:08:08.454Z,9460
2018-06-06T07:08:48.994Z,9448
2018-06-06T07:09:29.517Z,9444
2018-06-06T07:10:09.992Z,9432
2018-06-06T07:10:50.468Z,9424
2018-06-06T07:11:31.006Z,9420
2018-06-06T07:12:11.498Z,9396
2018-06-06T07:12:52.032Z,9396
2018-06-06T07:13:32.544Z,9380
2018-06-06T07:14:13.028Z,9360
2018-06-06T07:14:53.571Z,9332
2018-06-06T07:15:34.078Z,9308
2018-06-06T07:16:14.578Z,9296
2018-06-06T07:16:55.047Z,9280
2018-06-06T07:17:36.265Z,9268
2018-06-06T07:18:16.804Z,9268
2018-06-06T07:18:57.322Z,9256
2018-06-06T07:19:37.850Z,9232
2018-06-06T07:20:18.338Z,9208
2018-06-06T07:20:58.885Z,9188
2018-06-06T07:21:39.379Z,9188
2018-06-06T07:22:19.933Z,9168
2018-06-06T07:23:00.398Z,9128
2018-06-06T07:23:40.904Z,9084
2018-06-06T07:24:21.400Z,9056
2018-06-06T07:25:01.947Z,9024
2018-06-06T07:25:42.421Z,8988
2018-06-06T07:26:22.946Z,8960
2018-06-06T07:27:03.455Z,8936
2018-06-06T07:27:43.971Z,8912
2018-06-06T07:28:24.456Z,8896
2018-06-06T07:29:04.920Z,8884
2018-06-06T07:29:45.397Z,8872
2018-06-06T07:30:25.897Z,8860
2018-06-06T07:31:06.480Z,8860
2018-06-06T07:31:46.979Z,8836
2018-06-06T07:32:27.467Z,8820
2018-06-06T07:33:08.001Z,8800
2018-06-06T07:33:48.495Z,8784
2018-06-06T07:34:28.989Z,8764
2018-06-06T07:35:09.504Z,8736
2018-06-06T07:35:50.057Z,8720
2018-06-06T07:36:30.526Z,8700
2018-06-06T07:37:11.011Z,8668
2018-06-06T07:39:24.276Z,8564
2018-06-06T07:40:04.810Z,8520
2018-06-06T07:40:45.322Z,8480
2018-06-06T07:41:25.838Z,8448
2018-06-06T07:42:06.367Z,8412
2018-06-06T07:42:46.887Z,8364
2018-06-06T07:43:27.392Z,8336
2018-06-06T07:44:07.918Z,8312
2018-06-06T07:44:48.455Z,8276
2018-06-06T07:45:29.131Z,8244
2018-06-06T07:46:09.415Z,8216
2018-06-06T07:46:49.931Z,8172
2018-06-06T07:49:18.719Z,8072
2018-06-06T07:49:59.152Z,8044
2018-06-06T07:50:39.803Z,8036
2018-06-06T07:51:20.265Z,8016
2018-06-06T07:52:00.790Z,7968
2018-06-06T07:52:41.304Z,7928
2018-06-06T07:53:21.809Z,7872
2018-06-06T07:54:02.310Z,7828
2018-06-06T07:54:42.811Z,7792
2018-06-06T07:55:23.289Z,7752
2018-06-06T07:56:03.834Z,7716
2018-06-06T07:56:44.356Z,7696
2018-06-06T07:57:24.834Z,7660
2018-06-06T07:58:05.380Z,7624
2018-06-06T07:58:45.836Z,7596
2018-06-06T07:59:26.315Z,7572
2018-06-06T08:00:06.888Z,7548
2018-06-06T08:00:47.364Z,7508
2018-06-06T08:01:27.892Z,7468
2018-06-06T08:02:08.417Z,7436
2018-06-06T08:02:48.902Z,7400
2018-06-06T08:03:29.446Z,7360
2018-06-06T08:04:09.984Z,7312
2018-06-06T08:04:50.493Z,7268
2018-06-06T08:05:31.009Z,7228
2018-06-06T08:06:11.488Z,7192
2018-06-06T08:06:52.035Z,7168
2018-06-06T08:07:32.524Z,7136
2018-06-06T08:08:12.998Z,7112
2018-06-06T08:08:53.597Z,7084
2018-06-06T08:09:34.080Z,7060
2018-06-06T08:10:14.497Z,7040
2018-06-06T08:10:55.091Z,7004
2018-06-06T08:11:35.590Z,6996
2018-06-06T08:12:16.169Z,6980
2018-06-06T08:12:56.626Z,6960
2018-06-06T08:13:37.098Z,6944
2018-06-06T08:14:17.632Z,6916
2018-06-06T08:14:58.133Z,6884
2018-06-06T08:15:38.627Z,6860
2018-06-06T08:16:19.121Z,6828
2018-06-06T08:16:59.696Z,6792
2018-06-06T08:17:40.128Z,6764
2018-06-06T08:18:20.688Z,6740
2018-06-06T08:19:01.175Z,6716
2018-06-06T08:19:41.696Z,6688
2018-06-06T08:20:22.227Z,6660
2018-06-06T08:21:02.683Z,6624
2018-06-06T08:21:43.222Z,6584
2018-06-06T08:22:24.328Z,6548
2018-06-06T08:23:07.065Z,6512
2018-06-06T08:23:46.442Z,6460
2018-06-06T08:24:26.938Z,6392
2018-06-06T08:25:09.306Z,6296
2018-06-06T08:25:50.282Z,6200
2018-06-06T08:26:30.771Z,6104
2018-06-06T08:27:11.267Z,6024
2018-06-06T08:27:51.771Z,5956
2018-06-06T08:28:32.350Z,5900
2018-06-06T08:29:12.797Z,5860
2018-06-06T08:29:53.285Z,5840
2018-06-06T08:30:33.833Z,5812
2018-06-06T08:31:14.344Z,5792
2018-06-06T08:31:54.893Z,5756
2018-06-06T08:32:35.403Z,5724
2018-06-06T08:33:15.904Z,5696
2018-06-06T08:33:56.398Z,5660
2018-06-06T08:34:36.901Z,5636
2018-06-06T08:35:17.354Z,5608
2018-06-06T08:35:57.904Z,5584
2018-06-06T08:36:38.377Z,5564
2018-06-06T08:37:18.924Z,5544
2018-06-06T08:37:59.453Z,5524
2018-06-06T08:38:39.941Z,5496
2018-06-06T08:39:20.477Z,5472
2018-06-06T08:40:00.966Z,5444
2018-06-06T08:40:41.477Z,5424
2018-06-06T08:41:22.030Z,5388
2018-06-06T08:42:02.580Z,5360
2018-06-06T08:42:43.084Z,5348
2018-06-06T08:43:23.587Z,5332
2018-06-06T08:44:04.110Z,5328
2018-06-06T08:44:44.598Z,5312
2018-06-06T08:45:25.091Z,5304
2018-06-06T08:46:05.606Z,5300
2018-06-06T08:46:46.121Z,5300
2018-06-06T08:47:26.635Z,5280
2018-06-06T08:48:07.154Z,5264
2018-06-06T08:48:47.662Z,5244
2018-06-06T08:49:28.216Z,5224
2018-06-06T08:50:08.674Z,5208
2018-06-06T08:50:49.248Z,5184
2018-06-06T08:51:29.678Z,5156
2018-06-06T08:52:10.190Z,5136
2018-06-06T08:52:50.712Z,5120
2018-06-06T08:53:31.216Z,5112
2018-06-06T08:54:11.746Z,5104
2018-06-06T08:54:52.240Z,5092
2018-06-06T08:55:32.754Z,5044
2018-06-06T08:56:13.287Z,5012
2018-06-06T08:56:53.763Z,5000
2018-06-06T08:57:34.423Z,4992
2018-06-06T08:58:14.798Z,4976
2018-06-06T08:58:55.327Z,4968
2018-06-06T08:59:35.848Z,4964
2018-06-06T09:00:16.367Z,4956
2018-06-06T09:00:56.885Z,4944
2018-06-06T09:01:37.454Z,4920
2018-06-06T09:02:17.995Z,4908
2018-06-06T09:02:58.522Z,4892
2018-06-06T09:03:39.008Z,4880
2018-06-06T09:04:20.004Z,4840
2018-06-06T09:05:00.331Z,1668
2018-06-06T09:05:40.738Z,1896
2018-06-06T09:06:21.267Z,1072
2018-06-06T09:07:01.781Z,1232
2018-06-06T09:07:42.229Z,1196
2018-06-06T09:08:22.766Z,1288
2018-06-06T09:09:03.242Z,1284
2018-06-06T09:09:43.760Z,1292
2018-06-06T09:10:24.267Z,1300
2018-06-06T09:11:04.744Z,1276
2018-06-06T09:11:45.198Z,1284
2018-06-06T09:12:25.677Z,1276
2018-06-06T09:13:06.220Z,1276
2018-06-06T09:13:46.717Z,1260
2018-06-06T09:14:27.216Z,1248
2018-06-06T09:15:07.700Z,1280
2018-06-06T09:15:48.188Z,1268
2018-06-06T09:16:28.731Z,1280
2018-06-06T09:17:09.189Z,1284
2018-06-06T09:17:49.709Z,1252
2018-06-06T09:18:30.211Z,1264
2018-06-06T09:19:10.696Z,1260
2018-06-06T09:19:51.215Z,1260
2018-06-06T09:20:31.720Z,1260
2018-06-06T09:21:12.993Z,1272
2018-06-06T09:21:53.515Z,1264
2018-06-06T09:22:33.992Z,1248
2018-06-06T09:23:14.497Z,1256
2018-06-06T09:23:54.993Z,1248
2018-06-06T09:24:35.537Z,1240
2018-06-06T09:25:16.167Z,1244
2018-06-06T09:25:56.720Z,1244
2018-06-06T09:26:37.200Z,1256
2018-06-06T09:27:17.713Z,1248
2018-06-06T09:27:58.410Z,1248
2018-06-06T09:28:38.899Z,1240
2018-06-06T09:29:19.364Z,1236
2018-06-06T09:29:59.841Z,1240